createdAt,value
2022-09-12T00:02:09.344Z,2.90
2022-09-12T00:05:12.123Z,2.90
2022-09-12T00:08:15.244Z,2.90
2022-09-12T00:11:18.251Z,2.83
2022-09-12T00:14:20.864Z,3.03
2022-09-12T00:17:23.603Z,2.75
2022-09-12T00:20:26.169Z,3.20
2022-09-12T00:23:28.965Z,2.92
2022-09-12T00:26:31.741Z,3.05
2022-09-12T00:29:34.706Z,2.50
2022-09-12T00:32:37.343Z,3.62
2022-09-12T00:35:48.923Z,2.25
2022-09-12T00:38:51.628Z,2.42
2022-09-12T00:41:54.366Z,3.03
2022-09-12T00:44:56.746Z,2.10
2022-09-12T00:48:03.642Z,3.78
2022-09-12T00:51:06.450Z,2.97
2022-09-12T00:54:14.831Z,2.65
2022-09-12T00:57:18.347Z,6.55
2022-09-12T01:00:24.148Z,3.58
2022-09-12T01:03:27.068Z,3.28
2022-09-12T01:06:37.141Z,3.78
2022-09-12T01:09:41.750Z,3.37
2022-09-12T01:12:44.777Z,2.92
2022-09-12T01:15:47.340Z,2.90
2022-09-12T01:19:15.019Z,3.08
2022-09-12T01:22:55.223Z,2.45
2022-09-12T01:26:19.419Z,2.97
2022-09-12T01:29:40.338Z,2.72
2022-09-12T01:33:16.943Z,4.03
2022-09-12T01:36:34.512Z,2.58
2022-09-12T01:40:16.620Z,3.17
2022-09-12T01:43:26.756Z,2.28
2022-09-12T01:46:53.744Z,2.45
2022-09-12T01:50:08.336Z,2.50
2022-09-12T01:53:22.174Z,2.83
2022-09-12T01:56:28.300Z,3.22
2022-09-12T01:59:41.047Z,2.85
2022-09-12T02:02:51.968Z,3.25
2022-09-12T02:06:19.939Z,2.92
2022-09-12T02:09:38.028Z,2.58
2022-09-12T02:12:49.027Z,2.12
2022-09-12T02:15:58.379Z,2.25
2022-09-12T02:19:09.702Z,2.30
2022-09-12T02:22:17.720Z,2.62
2022-09-12T02:25:22.196Z,2.95
2022-09-12T02:28:30.075Z,3.87
2022-09-12T02:31:52.867Z,4.57
2022-09-12T02:35:09.307Z,2.28
2022-09-12T02:38:26.721Z,3.60
2022-09-12T02:41:29.232Z,3.08
2022-09-12T02:44:33.746Z,5.75
2022-09-12T02:47:49.044Z,3.97
2022-09-12T02:50:52.047Z,3.87
2022-09-12T02:53:54.694Z,3.10
2022-09-12T02:56:57.503Z,3.58
2022-09-12T03:00:01.663Z,3.85
2022-09-12T03:03:07.149Z,3.87
2022-09-12T03:06:18.430Z,4.00
2022-09-12T03:09:36.759Z,4.20
2022-09-12T03:13:00.985Z,3.83
2022-09-12T03:16:31.272Z,3.17
2022-09-12T03:19:45.712Z,3.08
2022-09-12T03:22:59.595Z,3.55
2022-09-12T03:26:21.267Z,2.95
2022-09-12T03:29:26.197Z,3.83
2022-09-12T03:32:44.849Z,4.28
2022-09-12T03:35:49.177Z,3.37
2022-09-12T03:38:52.204Z,4.10
2022-09-12T03:41:56.057Z,3.50
2022-09-12T03:44:58.617Z,2.60
2022-09-12T03:48:01.541Z,3.97
2022-09-12T03:51:06.084Z,3.53
2022-09-12T03:54:09.864Z,4.55
2022-09-12T03:57:12.615Z,4.20
2022-09-12T04:00:19.734Z,4.70
2022-09-12T04:03:22.858Z,5.35
2022-09-12T04:06:25.471Z,4.03
2022-09-12T04:09:28.198Z,2.90
2022-09-12T04:12:30.819Z,3.12
2022-09-12T04:15:33.693Z,3.42
2022-09-12T04:18:36.417Z,4.40
2022-09-12T04:21:40.053Z,7.70
2022-09-12T04:24:42.553Z,4.65
2022-09-12T04:27:45.310Z,5.00
2022-09-12T04:30:47.991Z,3.22
2022-09-12T04:33:56.303Z,3.50
2022-09-12T04:36:58.911Z,4.12
2022-09-12T04:40:01.887Z,3.97
2022-09-12T04:43:09.216Z,3.85
2022-09-12T04:46:16.986Z,2.47
2022-09-12T04:49:19.565Z,3.55
2022-09-12T04:52:22.448Z,3.70
2022-09-12T04:55:25.389Z,3.22
2022-09-12T04:58:28.120Z,3.62
2022-09-12T05:01:30.833Z,3.12
2022-09-12T05:04:33.716Z,4.10
2022-09-12T05:07:36.696Z,3.45
2022-09-12T05:10:39.459Z,5.75
2022-09-12T05:13:42.567Z,3.47
2022-09-12T05:16:49.192Z,3.62
2022-09-12T05:19:52.670Z,2.85
2022-09-12T05:22:55.844Z,3.33
2022-09-12T05:25:59.563Z,2.92
2022-09-12T05:29:04.340Z,3.42
2022-09-12T05:32:06.891Z,2.78
2022-09-12T05:35:09.649Z,4.10
2022-09-12T05:38:12.125Z,3.50
2022-09-12T05:41:25.123Z,3.65
2022-09-12T05:44:28.251Z,4.80
2022-09-12T05:47:31.400Z,4.90
2022-09-12T05:50:33.922Z,5.40
2022-09-12T05:53:37.977Z,7.45
2022-09-12T05:56:42.632Z,3.65
2022-09-12T05:59:45.409Z,5.87
2022-09-12T06:02:53.801Z,5.20
2022-09-12T06:05:56.611Z,6.35
2022-09-12T06:09:01.265Z,6.30
2022-09-12T06:12:04.237Z,5.75
2022-09-12T06:15:08.037Z,4.60
2022-09-12T06:18:11.010Z,4.57
2022-09-12T06:21:13.990Z,5.45
2022-09-12T06:24:18.224Z,5.35
2022-09-12T06:27:20.747Z,5.55
2022-09-12T06:30:25.489Z,5.28
2022-09-12T06:33:28.152Z,5.50
2022-09-12T06:36:34.092Z,6.18
2022-09-12T06:39:38.420Z,5.97
2022-09-12T06:42:41.223Z,6.53
2022-09-12T06:45:51.240Z,5.78
2022-09-12T06:48:56.623Z,4.95
2022-09-12T06:51:59.156Z,6.57
2022-09-12T06:55:01.939Z,5.87
2022-09-12T06:58:05.553Z,5.35
2022-09-12T07:01:14.215Z,5.45
2022-09-12T07:04:16.763Z,5.30
2022-09-12T07:07:19.565Z,6.87
2022-09-12T07:10:22.696Z,5.12
2022-09-12T07:13:25.610Z,5.22
2022-09-12T07:16:28.847Z,5.85
2022-09-12T07:19:31.645Z,5.03
2022-09-12T07:22:34.113Z,5.78
2022-09-12T07:25:37.712Z,5.28
2022-09-12T07:28:41.055Z,5.18
2022-09-12T07:31:44.546Z,4.82
2022-09-12T07:34:47.469Z,5.35
2022-09-12T07:37:50.319Z,5.35
2022-09-12T07:40:52.827Z,4.62
2022-09-12T07:43:57.786Z,4.72
2022-09-12T07:47:01.142Z,4.30
2022-09-12T07:50:04.169Z,4.78
2022-09-12T07:53:07.035Z,4.70
2022-09-12T07:56:11.295Z,4.30
2022-09-12T07:59:25.493Z,4.20
2022-09-12T08:02:41.498Z,3.70
2022-09-12T08:05:44.377Z,4.10
2022-09-12T08:08:48.446Z,4.20
2022-09-12T08:11:51.232Z,4.93
2022-09-12T08:14:53.790Z,4.10
2022-09-12T08:17:56.678Z,4.20
2022-09-12T08:21:00.839Z,4.00
2022-09-12T08:24:05.955Z,3.70
2022-09-12T08:27:08.548Z,4.25
2022-09-12T08:30:14.992Z,4.37
2022-09-12T08:33:17.997Z,4.87
2022-09-12T08:36:24.018Z,4.12
2022-09-12T08:39:26.467Z,4.95
2022-09-12T08:42:42.870Z,3.80
2022-09-12T08:45:58.336Z,3.28
2022-09-12T08:49:04.282Z,3.60
2022-09-12T08:52:15.604Z,3.53
2022-09-12T08:55:33.845Z,2.90
2022-09-12T08:58:40.870Z,3.17
2022-09-12T09:01:45.538Z,3.20
2022-09-12T09:04:56.443Z,3.05
2022-09-12T09:08:08.801Z,2.85
2022-09-12T09:11:21.326Z,2.87
2022-09-12T09:14:51.880Z,3.12
2022-09-12T09:18:11.106Z,2.60
2022-09-12T09:21:33.566Z,3.15
2022-09-12T09:24:48.946Z,2.75
2022-09-12T09:28:22.733Z,2.42
2022-09-12T09:31:28.914Z,2.80
2022-09-12T09:34:32.068Z,2.58
2022-09-12T09:37:58.882Z,2.03
2022-09-12T09:41:14.078Z,2.13
2022-09-12T09:44:17.584Z,2.40
2022-09-12T09:47:20.412Z,2.42
2022-09-12T09:50:24.052Z,2.30
2022-09-12T09:54:14.721Z,1.90
2022-09-12T09:57:35.510Z,2.10
2022-09-12T10:00:39.173Z,2.25
2022-09-12T10:03:56.047Z,2.30
2022-09-12T10:07:01.271Z,2.60
2022-09-12T10:10:23.244Z,2.35
2022-09-12T10:13:37.605Z,2.25
2022-09-12T10:16:53.285Z,3.47
2022-09-12T10:20:17.549Z,2.22
2022-09-12T10:23:37.062Z,1.77
2022-09-12T10:26:41.567Z,1.67
2022-09-12T10:29:54.642Z,1.80
2022-09-12T10:33:06.521Z,1.65
2022-09-12T10:36:09.468Z,1.83
2022-09-12T10:39:18.670Z,1.65
2022-09-12T10:42:46.759Z,1.77
2022-09-12T10:49:14.681Z,3.40
2022-09-12T10:52:27.372Z,1.85
2022-09-12T10:55:35.496Z,1.90
2022-09-12T10:58:48.825Z,2.05
2022-09-12T11:01:58.495Z,1.95
2022-09-12T11:05:36.827Z,1.85
2022-09-12T11:09:10.047Z,1.58
2022-09-12T11:12:24.294Z,1.92
2022-09-12T11:15:55.516Z,1.62
2022-09-12T11:19:19.967Z,1.90
2022-09-12T11:22:31.719Z,1.67
2022-09-12T11:25:46.226Z,1.70
2022-09-12T11:28:55.843Z,2.03
2022-09-12T11:32:23.543Z,1.30
2022-09-12T11:35:29.732Z,1.60
2022-09-12T11:38:51.161Z,1.70
2022-09-12T11:42:00.501Z,1.67
2022-09-12T11:45:13.873Z,1.90
2022-09-12T11:48:46.269Z,1.90
2022-09-12T11:52:18.535Z,2.12
2022-09-12T11:55:29.840Z,1.80
2022-09-12T11:58:32.702Z,2.08
2022-09-12T12:01:44.996Z,2.30
2022-09-12T12:05:20.938Z,1.83
2022-09-12T12:08:27.605Z,2.22
2022-09-12T12:11:34.457Z,2.28
2022-09-12T12:14:46.836Z,2.12
2022-09-12T12:18:04.015Z,2.40
2022-09-12T12:21:32.123Z,2.10
2022-09-12T12:24:35.240Z,2.28
2022-09-12T12:28:06.333Z,2.00
2022-09-12T12:31:11.364Z,1.80
2022-09-12T12:34:35.207Z,1.87
2022-09-12T12:37:43.939Z,3.72
2022-09-12T12:40:46.973Z,2.08
2022-09-12T12:43:56.235Z,1.83
2022-09-12T12:47:20.218Z,1.60
2022-09-12T12:50:29.315Z,2.12
2022-09-12T12:53:31.852Z,1.98
2022-09-12T12:56:41.989Z,1.83
2022-09-12T13:00:08.897Z,1.87
2022-09-12T13:03:41.119Z,1.62
2022-09-12T13:06:46.516Z,2.12
2022-09-12T13:09:52.959Z,1.42
2022-09-12T13:13:03.432Z,1.75
2022-09-12T13:16:06.474Z,2.35
2022-09-12T13:19:19.245Z,1.60
2022-09-12T13:22:24.646Z,1.70
2022-09-12T13:25:32.877Z,2.10
2022-09-12T13:28:36.035Z,1.73
2022-09-12T13:31:39.376Z,1.80
2022-09-12T13:35:23.529Z,1.50
2022-09-12T13:39:03.169Z,1.75
2022-09-12T13:42:33.339Z,1.80
2022-09-12T13:45:39.527Z,1.55
2022-09-12T13:48:43.620Z,1.58
2022-09-12T13:51:46.200Z,1.42
2022-09-12T13:54:53.848Z,1.23
2022-09-12T13:58:05.113Z,1.15
2022-09-12T14:01:10.865Z,2.58
2022-09-12T14:04:36.692Z,0.95
2022-09-12T14:07:51.163Z,1.15
2022-09-12T14:10:54.775Z,1.02
2022-09-12T14:13:58.296Z,1.30
2022-09-12T14:17:01.138Z,0.90
2022-09-12T14:20:14.704Z,3.10
2022-09-12T14:23:29.652Z,0.93
2022-09-12T14:26:39.015Z,1.33
2022-09-12T14:29:44.080Z,1.25
2022-09-12T14:33:06.216Z,1.00
2022-09-12T14:36:15.734Z,0.95
2022-09-12T14:39:21.881Z,1.00
2022-09-12T14:42:30.353Z,0.85
2022-09-12T14:45:33.319Z,0.93
2022-09-12T14:48:43.260Z,0.82
2022-09-12T14:51:51.742Z,1.60
2022-09-12T14:55:21.617Z,1.20
2022-09-12T14:58:27.380Z,1.02
2022-09-12T15:01:30.191Z,0.82
2022-09-12T15:04:42.205Z,1.10
2022-09-12T15:07:53.925Z,1.45
2022-09-12T15:10:57.441Z,0.82
2022-09-12T15:14:12.881Z,1.08
2022-09-12T15:17:15.365Z,0.80
2022-09-12T15:20:18.186Z,1.20
2022-09-12T15:23:31.119Z,0.80
2022-09-12T15:26:33.910Z,0.75
2022-09-12T15:29:36.423Z,2.22
2022-09-12T15:32:41.985Z,1.48
2022-09-12T15:35:44.968Z,0.80
2022-09-12T15:38:48.860Z,0.80
2022-09-12T15:41:51.672Z,0.80
2022-09-12T15:44:54.787Z,0.90
2022-09-12T15:47:59.899Z,0.73
2022-09-12T15:51:04.801Z,0.80
2022-09-12T15:54:07.284Z,0.80
2022-09-12T15:57:10.228Z,1.08
2022-09-12T16:00:14.398Z,0.70
2022-09-12T16:03:27.580Z,1.02
2022-09-12T16:06:36.264Z,0.85
2022-09-12T16:09:40.172Z,0.82
2022-09-12T16:12:44.624Z,1.20
2022-09-12T16:15:47.385Z,1.05
2022-09-12T16:18:49.962Z,1.05
2022-09-12T16:21:52.867Z,0.90
2022-09-12T16:24:55.360Z,1.48
2022-09-12T16:27:58.353Z,1.15
2022-09-12T16:31:05.795Z,0.80
2022-09-12T16:34:08.684Z,1.20
2022-09-12T16:37:11.262Z,0.95
2022-09-12T16:40:15.845Z,0.95
2022-09-12T16:43:18.435Z,1.00
2022-09-12T16:46:24.168Z,0.90
2022-09-12T16:49:26.770Z,0.90
2022-09-12T16:52:30.262Z,2.28
2022-09-12T16:55:32.681Z,1.00
2022-09-12T16:58:41.577Z,0.93
2022-09-12T17:01:45.292Z,1.00
2022-09-12T17:04:48.855Z,0.95
2022-09-12T17:07:51.967Z,0.85
2022-09-12T17:11:05.943Z,1.02
2022-09-12T17:14:09.034Z,0.82
2022-09-12T17:17:12.054Z,1.10
2022-09-12T17:20:14.698Z,0.80
2022-09-12T17:23:17.908Z,1.10
2022-09-12T17:26:20.856Z,1.02
2022-09-12T17:29:23.643Z,1.30
2022-09-12T17:32:26.033Z,0.90
2022-09-12T17:35:29.110Z,1.00
2022-09-12T17:38:34.153Z,1.10
2022-09-12T17:41:37.694Z,1.02
2022-09-12T17:44:40.498Z,1.08
2022-09-12T17:47:43.335Z,1.62
2022-09-12T17:50:46.578Z,0.80
2022-09-12T17:53:49.368Z,1.20
2022-09-12T17:56:52.287Z,1.17
2022-09-12T17:59:54.968Z,0.82
2022-09-12T18:02:58.017Z,1.12
2022-09-12T18:06:01.052Z,1.20
2022-09-12T18:09:06.394Z,0.93
2022-09-12T18:12:10.100Z,1.30
2022-09-12T18:15:13.181Z,1.45
2022-09-12T18:18:16.126Z,1.27
2022-09-12T18:21:19.822Z,1.17
2022-09-12T18:24:23.133Z,1.60
2022-09-12T18:27:25.675Z,1.37
2022-09-12T18:30:30.096Z,1.40
2022-09-12T18:33:34.015Z,1.40
2022-09-12T18:36:37.088Z,1.52
2022-09-12T18:39:39.675Z,1.27
2022-09-12T18:42:42.438Z,0.98
2022-09-12T18:45:45.035Z,1.20
2022-09-12T18:48:47.879Z,1.20
2022-09-12T18:51:50.479Z,1.83
2022-09-12T18:54:53.335Z,1.40
2022-09-12T18:57:55.856Z,1.58
2022-09-12T19:00:59.214Z,1.37
2022-09-12T19:04:04.740Z,1.20
2022-09-12T19:07:07.814Z,1.50
2022-09-12T19:10:10.321Z,2.00
2022-09-12T19:13:13.114Z,1.40
2022-09-12T19:16:34.675Z,1.40
2022-09-12T19:19:40.469Z,1.48
2022-09-12T19:22:43.852Z,1.42
2022-09-12T19:25:56.887Z,1.62
2022-09-12T19:29:02.488Z,1.67
2022-09-12T19:32:05.474Z,1.60
2022-09-12T19:35:08.509Z,1.80
2022-09-12T19:38:12.223Z,1.80
2022-09-12T19:41:15.334Z,1.58
2022-09-12T19:44:19.354Z,1.60
2022-09-12T19:47:22.069Z,3.05
2022-09-12T19:50:28.225Z,1.73
2022-09-12T19:53:31.434Z,1.17
2022-09-12T19:56:34.261Z,1.92
2022-09-12T19:59:40.290Z,1.98
2022-09-12T20:02:43.221Z,2.22
2022-09-12T20:05:46.023Z,1.70
2022-09-12T20:08:49.176Z,2.05
2022-09-12T20:11:52.004Z,1.62
2022-09-12T20:14:54.566Z,2.12
2022-09-12T20:17:57.966Z,1.90
2022-09-12T20:21:11.670Z,1.52
2022-09-12T20:24:16.027Z,1.55
2022-09-12T20:27:18.635Z,1.80
2022-09-12T20:30:21.437Z,1.55
2022-09-12T20:33:23.891Z,2.10
2022-09-12T20:36:26.962Z,1.90
2022-09-12T20:39:29.462Z,1.75
2022-09-12T20:42:32.197Z,1.10
2022-09-12T20:45:41.432Z,1.98
2022-09-12T20:48:44.190Z,1.40
2022-09-12T20:51:48.341Z,1.73
2022-09-12T20:54:51.188Z,1.60
2022-09-12T20:57:53.659Z,1.60
2022-09-12T21:00:56.501Z,4.10
2022-09-12T21:04:00.749Z,1.15
2022-09-12T21:07:03.595Z,2.22
2022-09-12T21:10:06.364Z,1.45
2022-09-12T21:13:10.933Z,1.35
2022-09-12T21:16:16.755Z,1.55
2022-09-12T21:19:19.632Z,2.72
2022-09-12T21:22:22.197Z,2.65
2022-09-12T21:25:25.179Z,1.67
2022-09-12T21:28:28.509Z,1.50
2022-09-12T21:31:31.303Z,2.22
2022-09-12T21:34:33.928Z,2.17
2022-09-12T21:37:37.158Z,2.08
2022-09-12T21:40:39.662Z,2.00
2022-09-12T21:43:43.579Z,1.98
2022-09-12T21:46:46.187Z,1.65
2022-09-12T21:49:48.981Z,2.00
2022-09-12T21:52:51.706Z,2.53
2022-09-12T21:55:55.038Z,1.83
2022-09-12T21:58:57.566Z,2.35
2022-09-12T22:02:00.423Z,1.77
2022-09-12T22:05:04.169Z,2.72
2022-09-12T22:08:08.149Z,1.77
2022-09-12T22:11:10.898Z,2.20
2022-09-12T22:14:13.392Z,1.95
2022-09-12T22:17:16.283Z,1.77
2022-09-12T22:20:19.266Z,1.77
2022-09-12T22:23:40.565Z,2.08
2022-09-12T22:26:45.161Z,1.67
2022-09-12T22:29:50.571Z,1.60
2022-09-12T22:32:53.156Z,1.95
2022-09-12T22:35:55.915Z,1.65
2022-09-12T22:39:00.291Z,1.75
2022-09-12T22:42:03.834Z,1.58
2022-09-12T22:45:07.621Z,2.35
2022-09-12T22:48:10.426Z,1.45
2022-09-12T22:51:13.698Z,3.00
2022-09-12T22:54:16.463Z,1.65
2022-09-12T22:57:19.301Z,2.15
2022-09-12T23:00:23.587Z,1.70
2022-09-12T23:03:26.188Z,1.55
2022-09-12T23:06:29.513Z,2.35
2022-09-12T23:09:35.247Z,2.40
2022-09-12T23:12:38.309Z,2.50
2022-09-12T23:15:41.315Z,1.52
2022-09-12T23:18:44.379Z,1.80
2022-09-12T23:21:46.814Z,2.15
2022-09-12T23:24:49.548Z,2.80
2022-09-12T23:27:52.161Z,2.47
2022-09-12T23:30:55.975Z,1.87
2022-09-12T23:34:02.019Z,2.08
2022-09-12T23:37:04.747Z,2.97
2022-09-12T23:40:09.149Z,2.85
2022-09-12T23:43:11.942Z,2.40
2022-09-12T23:46:15.959Z,1.77
2022-09-12T23:49:18.785Z,1.37
2022-09-12T23:52:21.296Z,1.12
2022-09-12T23:55:24.555Z,2.25
2022-09-12T23:58:27.171Z,3.30
